sensor_id;sensor_type;location;lat;lon;timestamp;P1;durP1;ratioP1;P2;durP2;ratioP2
2618;SDS011;1319;52.346;13.096;2022-10-16T00:00:52;2.30;;;2.20;;
2618;SDS011;1319;52.346;13.096;2022-10-16T00:03:17;2.27;;;2.17;;
2618;SDS011;1319;52.346;13.096;2022-10-16T00:05:42;2.57;;;2.37;;
2618;SDS011;1319;52.346;13.096;2022-10-16T00:08:08;5.23;;;2.30;;
2618;SDS011;1319;52.346;13.096;2022-10-16T00:10:34;2.70;;;2.50;;
2618;SDS011;1319;52.346;13.096;2022-10-16T00:13:00;2.43;;;2.23;;
2618;SDS011;1319;52.346;13.096;2022-10-16T00:15:25;2.30;;;2.10;;
2618;SDS011;1319;52.346;13.096;2022-10-16T00:17:50;5.17;;;2.60;;
2618;SDS011;1319;52.346;13.096;2022-10-16T00:20:15;2.53;;;2.40;;
2618;SDS011;1319;52.346;13.096;2022-10-16T00:22:41;3.27;;;2.43;;
2618;SDS011;1319;52.346;13.096;2022-10-16T00:25:06;2.60;;;2.40;;
2618;SDS011;1319;52.346;13.096;2022-10-16T00:27:32;2.93;;;2.37;;
2618;SDS011;1319;52.346;13.096;2022-10-16T00:29:57;2.63;;;2.10;;
2618;SDS011;1319;52.346;13.096;2022-10-16T00:32:23;2.57;;;2.37;;
2618;SDS011;1319;52.346;13.096;2022-10-16T00:34:49;3.70;;;2.20;;
2618;SDS011;1319;52.346;13.096;2022-10-16T00:37:14;2.13;;;2.03;;
2618;SDS011;1319;52.346;13.096;2022-10-16T00:39:39;3.40;;;2.50;;
2618;SDS011;1319;52.346;13.096;2022-10-16T00:42:04;3.27;;;2.13;;
2618;SDS011;1319;52.346;13.096;2022-10-16T00:47:09;2.87;;;2.10;;
2618;SDS011;1319;52.346;13.096;2022-10-16T00:49:34;2.40;;;2.30;;
2618;SDS011;1319;52.346;13.096;2022-10-16T00:52:00;2.27;;;2.17;;
2618;SDS011;1319;52.346;13.096;2022-10-16T00:54:29;3.27;;;2.17;;
2618;SDS011;1319;52.346;13.096;2022-10-16T00:56:55;3.20;;;2.10;;
2618;SDS011;1319;52.346;13.096;2022-10-16T00:59:25;2.37;;;2.17;;
2618;SDS011;1319;52.346;13.096;2022-10-16T01:01:52;4.30;;;2.30;;
2618;SDS011;1319;52.346;13.096;2022-10-16T01:04:17;2.17;;;2.07;;
2618;SDS011;1319;52.346;13.096;2022-10-16T01:06:50;2.70;;;2.10;;
2618;SDS011;1319;52.346;13.096;2022-10-16T01:09:21;2.77;;;2.20;;
2618;SDS011;1319;52.346;13.096;2022-10-16T01:14:19;2.83;;;2.30;;
2618;SDS011;1319;52.346;13.096;2022-10-16T01:16:49;1.97;;;1.90;;
2618;SDS011;1319;52.346;13.096;2022-10-16T01:19:36;3.93;;;2.37;;
2618;SDS011;1319;52.346;13.096;2022-10-16T01:22:03;3.80;;;2.27;;
2618;SDS011;1319;52.346;13.096;2022-10-16T01:24:33;2.20;;;2.10;;
2618;SDS011;1319;52.346;13.096;2022-10-16T01:32:05;2.70;;;2.50;;
2618;SDS011;1319;52.346;13.096;2022-10-16T01:34:33;4.10;;;2.43;;
2618;SDS011;1319;52.346;13.096;2022-10-16T01:37:05;2.37;;;2.17;;
2618;SDS011;1319;52.346;13.096;2022-10-16T01:39:31;2.40;;;2.20;;
2618;SDS011;1319;52.346;13.096;2022-10-16T01:42:00;2.80;;;2.30;;
2618;SDS011;1319;52.346;13.096;2022-10-16T01:44:28;3.87;;;2.47;;
2618;SDS011;1319;52.346;13.096;2022-10-16T01:46:54;2.50;;;2.30;;
2618;SDS011;1319;52.346;13.096;2022-10-16T01:49:20;3.10;;;2.50;;
2618;SDS011;1319;52.346;13.096;2022-10-16T01:51:47;2.57;;;2.10;;
2618;SDS011;1319;52.346;13.096;2022-10-16T01:54:13;2.73;;;2.53;;
2618;SDS011;1319;52.346;13.096;2022-10-16T01:56:39;2.40;;;2.30;;
2618;SDS011;1319;52.346;13.096;2022-10-16T01:59:14;3.17;;;2.50;;
2618;SDS011;1319;52.346;13.096;2022-10-16T02:01:40;2.40;;;2.20;;
2618;SDS011;1319;52.346;13.096;2022-10-16T02:04:09;2.83;;;2.60;;
2618;SDS011;1319;52.346;13.096;2022-10-16T02:06:35;2.60;;;2.40;;
2618;SDS011;1319;52.346;13.096;2022-10-16T02:09:01;7.17;;;2.40;;
2618;SDS011;1319;52.346;13.096;2022-10-16T02:11:26;4.83;;;2.60;;
2618;SDS011;1319;52.346;13.096;2022-10-16T02:13:53;2.70;;;2.33;;
2618;SDS011;1319;52.346;13.096;2022-10-16T02:16:20;2.43;;;2.27;;
2618;SDS011;1319;52.346;13.096;2022-10-16T02:18:45;3.90;;;2.30;;
2618;SDS011;1319;52.346;13.096;2022-10-16T02:21:16;2.10;;;2.00;;
2618;SDS011;1319;52.346;13.096;2022-10-16T02:23:54;2.40;;;2.30;;
2618;SDS011;1319;52.346;13.096;2022-10-16T02:26:27;5.13;;;2.23;;
2618;SDS011;1319;52.346;13.096;2022-10-16T02:28:54;3.47;;;2.30;;
2618;SDS011;1319;52.346;13.096;2022-10-16T02:31:23;2.33;;;2.23;;
2618;SDS011;1319;52.346;13.096;2022-10-16T02:33:49;2.80;;;2.40;;
2618;SDS011;1319;52.346;13.096;2022-10-16T02:36:15;3.07;;;2.30;;
2618;SDS011;1319;52.346;13.096;2022-10-16T02:38:41;2.33;;;2.23;;
2618;SDS011;1319;52.346;13.096;2022-10-16T02:41:06;2.60;;;2.40;;
2618;SDS011;1319;52.346;13.096;2022-10-16T02:43:32;2.47;;;2.37;;
2618;SDS011;1319;52.346;13.096;2022-10-16T02:45:58;2.50;;;2.30;;
2618;SDS011;1319;52.346;13.096;2022-10-16T02:48:24;2.50;;;2.37;;
2618;SDS011;1319;52.346;13.096;2022-10-16T02:50:49;3.30;;;2.40;;
2618;SDS011;1319;52.346;13.096;2022-10-16T02:53:14;2.20;;;2.10;;
2618;SDS011;1319;52.346;13.096;2022-10-16T02:55:39;2.77;;;2.43;;
2618;SDS011;1319;52.346;13.096;2022-10-16T02:58:05;2.60;;;2.40;;
2618;SDS011;1319;52.346;13.096;2022-10-16T03:00:30;2.83;;;2.50;;
2618;SDS011;1319;52.346;13.096;2022-10-16T03:02:55;2.83;;;2.30;;
2618;SDS011;1319;52.346;13.096;2022-10-16T03:05:20;2.67;;;2.57;;
2618;SDS011;1319;52.346;13.096;2022-10-16T03:07:46;2.47;;;2.37;;
2618;SDS011;1319;52.346;13.096;2022-10-16T03:10:11;2.97;;;2.77;;
2618;SDS011;1319;52.346;13.096;2022-10-16T03:12:36;3.67;;;2.40;;
2618;SDS011;1319;52.346;13.096;2022-10-16T03:15:02;2.67;;;2.47;;
2618;SDS011;1319;52.346;13.096;2022-10-16T03:17:27;2.87;;;2.67;;
2618;SDS011;1319;52.346;13.096;2022-10-16T03:19:53;2.30;;;2.20;;
2618;SDS011;1319;52.346;13.096;2022-10-16T03:22:18;4.63;;;2.83;;
2618;SDS011;1319;52.346;13.096;2022-10-16T03:24:43;2.60;;;2.50;;
2618;SDS011;1319;52.346;13.096;2022-10-16T03:27:08;3.00;;;2.53;;
2618;SDS011;1319;52.346;13.096;2022-10-16T03:29:34;3.00;;;2.80;;
2618;SDS011;1319;52.346;13.096;2022-10-16T03:31:59;2.63;;;2.53;;
2618;SDS011;1319;52.346;13.096;2022-10-16T03:34:25;2.70;;;2.53;;
2618;SDS011;1319;52.346;13.096;2022-10-16T03:36:50;3.23;;;2.80;;
2618;SDS011;1319;52.346;13.096;2022-10-16T03:39:16;2.90;;;2.70;;
2618;SDS011;1319;52.346;13.096;2022-10-16T03:41:41;3.23;;;3.00;;
2618;SDS011;1319;52.346;13.096;2022-10-16T03:44:06;2.97;;;2.67;;
2618;SDS011;1319;52.346;13.096;2022-10-16T03:46:31;3.17;;;2.70;;
2618;SDS011;1319;52.346;13.096;2022-10-16T03:48:57;2.73;;;2.63;;
2618;SDS011;1319;52.346;13.096;2022-10-16T03:51:22;2.80;;;2.60;;
2618;SDS011;1319;52.346;13.096;2022-10-16T03:53:47;2.70;;;2.50;;
2618;SDS011;1319;52.346;13.096;2022-10-16T03:56:12;2.70;;;2.60;;
2618;SDS011;1319;52.346;13.096;2022-10-16T03:58:38;3.00;;;2.80;;
2618;SDS011;1319;52.346;13.096;2022-10-16T04:01:06;2.93;;;2.73;;
2618;SDS011;1319;52.346;13.096;2022-10-16T04:03:31;3.10;;;2.90;;
2618;SDS011;1319;52.346;13.096;2022-10-16T04:05:56;3.27;;;2.70;;
2618;SDS011;1319;52.346;13.096;2022-10-16T04:08:22;3.27;;;3.07;;
2618;SDS011;1319;52.346;13.096;2022-10-16T04:10:47;4.00;;;3.17;;
2618;SDS011;1319;52.346;13.096;2022-10-16T04:13:12;3.43;;;3.13;;
2618;SDS011;1319;52.346;13.096;2022-10-16T04:15:38;3.73;;;3.13;;
2618;SDS011;1319;52.346;13.096;2022-10-16T04:18:03;3.13;;;2.83;;
2618;SDS011;1319;52.346;13.096;2022-10-16T04:20:29;3.13;;;2.83;;
2618;SDS011;1319;52.346;13.096;2022-10-16T04:22:55;3.80;;;3.20;;
2618;SDS011;1319;52.346;13.096;2022-10-16T04:25:20;3.73;;;3.43;;
2618;SDS011;1319;52.346;13.096;2022-10-16T04:27:45;4.07;;;3.30;;
2618;SDS011;1319;52.346;13.096;2022-10-16T04:30:10;3.90;;;3.43;;
2618;SDS011;1319;52.346;13.096;2022-10-16T04:32:36;4.10;;;3.40;;
2618;SDS011;1319;52.346;13.096;2022-10-16T04:35:01;3.63;;;3.30;;
2618;SDS011;1319;52.346;13.096;2022-10-16T04:37:27;3.73;;;3.33;;
2618;SDS011;1319;52.346;13.096;2022-10-16T04:39:53;4.13;;;3.73;;
2618;SDS011;1319;52.346;13.096;2022-10-16T04:42:18;4.67;;;3.70;;
2618;SDS011;1319;52.346;13.096;2022-10-16T04:44:43;4.27;;;3.87;;
2618;SDS011;1319;52.346;13.096;2022-10-16T04:47:09;4.07;;;3.77;;
2618;SDS011;1319;52.346;13.096;2022-10-16T04:49:34;4.77;;;3.90;;
2618;SDS011;1319;52.346;13.096;2022-10-16T04:51:59;8.60;;;3.93;;
2618;SDS011;1319;52.346;13.096;2022-10-16T04:54:24;4.70;;;4.17;;
2618;SDS011;1319;52.346;13.096;2022-10-16T04:56:50;5.17;;;4.03;;
2618;SDS011;1319;52.346;13.096;2022-10-16T04:59:17;4.33;;;3.53;;
2618;SDS011;1319;52.346;13.096;2022-10-16T05:01:42;4.67;;;4.20;;
2618;SDS011;1319;52.346;13.096;2022-10-16T05:04:08;4.17;;;3.77;;
2618;SDS011;1319;52.346;13.096;2022-10-16T05:06:33;3.60;;;3.30;;
2618;SDS011;1319;52.346;13.096;2022-10-16T05:08:59;3.80;;;3.50;;
2618;SDS011;1319;52.346;13.096;2022-10-16T05:11:24;4.10;;;3.70;;
2618;SDS011;1319;52.346;13.096;2022-10-16T05:13:49;4.67;;;3.30;;
2618;SDS011;1319;52.346;13.096;2022-10-16T05:16:14;4.67;;;3.60;;
2618;SDS011;1319;52.346;13.096;2022-10-16T05:18:40;3.73;;;3.43;;
2618;SDS011;1319;52.346;13.096;2022-10-16T05:21:05;6.50;;;3.93;;
2618;SDS011;1319;52.346;13.096;2022-10-16T05:23:31;4.23;;;3.53;;
2618;SDS011;1319;52.346;13.096;2022-10-16T05:25:56;5.07;;;4.13;;
2618;SDS011;1319;52.346;13.096;2022-10-16T05:28:23;4.67;;;4.27;;
2618;SDS011;1319;52.346;13.096;2022-10-16T05:30:48;6.20;;;4.03;;
2618;SDS011;1319;52.346;13.096;2022-10-16T05:33:13;5.30;;;4.07;;
2618;SDS011;1319;52.346;13.096;2022-10-16T05:35:39;4.00;;;3.70;;
2618;SDS011;1319;52.346;13.096;2022-10-16T05:38:04;6.30;;;4.00;;
2618;SDS011;1319;52.346;13.096;2022-10-16T05:40:29;5.83;;;3.60;;
2618;SDS011;1319;52.346;13.096;2022-10-16T05:42:55;3.80;;;3.50;;
2618;SDS011;1319;52.346;13.096;2022-10-16T05:45:20;4.33;;;3.30;;
2618;SDS011;1319;52.346;13.096;2022-10-16T05:47:46;3.57;;;3.23;;
2618;SDS011;1319;52.346;13.096;2022-10-16T05:50:11;3.77;;;3.47;;
2618;SDS011;1319;52.346;13.096;2022-10-16T05:52:36;4.27;;;3.87;;
2618;SDS011;1319;52.346;13.096;2022-10-16T05:55:01;7.87;;;3.87;;
2618;SDS011;1319;52.346;13.096;2022-10-16T05:57:27;5.67;;;3.90;;
2618;SDS011;1319;52.346;13.096;2022-10-16T05:59:52;5.60;;;3.40;;
2618;SDS011;1319;52.346;13.096;2022-10-16T06:02:17;4.00;;;3.47;;
2618;SDS011;1319;52.346;13.096;2022-10-16T06:04:42;3.50;;;3.30;;
2618;SDS011;1319;52.346;13.096;2022-10-16T06:07:08;4.10;;;3.67;;
2618;SDS011;1319;52.346;13.096;2022-10-16T06:09:33;4.17;;;3.10;;
2618;SDS011;1319;52.346;13.096;2022-10-16T06:11:58;3.60;;;3.30;;
2618;SDS011;1319;52.346;13.096;2022-10-16T06:14:23;9.77;;;3.57;;
2618;SDS011;1319;52.346;13.096;2022-10-16T06:16:49;6.10;;;3.40;;
2618;SDS011;1319;52.346;13.096;2022-10-16T06:19:14;3.10;;;2.90;;
2618;SDS011;1319;52.346;13.096;2022-10-16T06:21:41;6.03;;;3.00;;
2618;SDS011;1319;52.346;13.096;2022-10-16T06:24:06;5.07;;;3.70;;
2618;SDS011;1319;52.346;13.096;2022-10-16T06:26:32;3.50;;;3.20;;
2618;SDS011;1319;52.346;13.096;2022-10-16T06:28:58;5.00;;;3.00;;
2618;SDS011;1319;52.346;13.096;2022-10-16T06:31:23;4.40;;;2.90;;
2618;SDS011;1319;52.346;13.096;2022-10-16T06:33:52;7.43;;;3.30;;
2618;SDS011;1319;52.346;13.096;2022-10-16T06:36:18;3.40;;;3.20;;
2618;SDS011;1319;52.346;13.096;2022-10-16T06:38:44;3.20;;;2.90;;
2618;SDS011;1319;52.346;13.096;2022-10-16T06:41:11;3.57;;;3.27;;
2618;SDS011;1319;52.346;13.096;2022-10-16T06:43:36;3.30;;;3.10;;
2618;SDS011;1319;52.346;13.096;2022-10-16T06:46:02;3.00;;;2.80;;
2618;SDS011;1319;52.346;13.096;2022-10-16T06:48:28;3.63;;;3.40;;
2618;SDS011;1319;52.346;13.096;2022-10-16T06:53:22;3.67;;;3.40;;
2618;SDS011;1319;52.346;13.096;2022-10-16T06:55:47;4.53;;;3.30;;
2618;SDS011;1319;52.346;13.096;2022-10-16T06:58:12;3.20;;;3.00;;
2618;SDS011;1319;52.346;13.096;2022-10-16T07:00:38;3.73;;;3.43;;
2618;SDS011;1319;52.346;13.096;2022-10-16T07:03:03;4.77;;;3.60;;
2618;SDS011;1319;52.346;13.096;2022-10-16T07:05:28;3.70;;;3.30;;
2618;SDS011;1319;52.346;13.096;2022-10-16T07:07:53;4.87;;;3.10;;
2618;SDS011;1319;52.346;13.096;2022-10-16T07:10:18;3.17;;;2.97;;
2618;SDS011;1319;52.346;13.096;2022-10-16T07:12:44;8.27;;;2.97;;
2618;SDS011;1319;52.346;13.096;2022-10-16T07:15:10;3.20;;;2.90;;
2618;SDS011;1319;52.346;13.096;2022-10-16T07:17:35;2.93;;;2.73;;
2618;SDS011;1319;52.346;13.096;2022-10-16T07:20:01;4.67;;;2.60;;
2618;SDS011;1319;52.346;13.096;2022-10-16T07:22:27;2.70;;;2.50;;
2618;SDS011;1319;52.346;13.096;2022-10-16T07:24:53;5.20;;;2.53;;
2618;SDS011;1319;52.346;13.096;2022-10-16T07:27:18;2.77;;;2.53;;
2618;SDS011;1319;52.346;13.096;2022-10-16T07:29:43;2.30;;;2.20;;
2618;SDS011;1319;52.346;13.096;2022-10-16T07:32:08;2.30;;;2.20;;
2618;SDS011;1319;52.346;13.096;2022-10-16T07:34:33;3.73;;;2.40;;
2618;SDS011;1319;52.346;13.096;2022-10-16T07:36:59;2.67;;;2.10;;
2618;SDS011;1319;52.346;13.096;2022-10-16T07:39:24;4.83;;;2.10;;
2618;SDS011;1319;52.346;13.096;2022-10-16T07:41:49;3.90;;;1.80;;
2618;SDS011;1319;52.346;13.096;2022-10-16T07:44:15;2.10;;;2.00;;
2618;SDS011;1319;52.346;13.096;2022-10-16T07:46:40;3.00;;;1.67;;
2618;SDS011;1319;52.346;13.096;2022-10-16T07:49:06;2.30;;;1.80;;
2618;SDS011;1319;52.346;13.096;2022-10-16T07:51:31;1.70;;;1.60;;
2618;SDS011;1319;52.346;13.096;2022-10-16T07:53:56;2.23;;;1.57;;
2618;SDS011;1319;52.346;13.096;2022-10-16T07:56:22;1.77;;;1.67;;
2618;SDS011;1319;52.346;13.096;2022-10-16T07:58:48;1.80;;;1.70;;
2618;SDS011;1319;52.346;13.096;2022-10-16T08:01:15;1.60;;;1.50;;
2618;SDS011;1319;52.346;13.096;2022-10-16T08:03:41;1.80;;;1.70;;
2618;SDS011;1319;52.346;13.096;2022-10-16T08:06:07;1.63;;;1.63;;
2618;SDS011;1319;52.346;13.096;2022-10-16T08:08:32;1.70;;;1.70;;
2618;SDS011;1319;52.346;13.096;2022-10-16T08:10:57;3.43;;;1.50;;
2618;SDS011;1319;52.346;13.096;2022-10-16T08:13:22;2.67;;;1.30;;
2618;SDS011;1319;52.346;13.096;2022-10-16T08:15:48;1.60;;;1.60;;
2618;SDS011;1319;52.346;13.096;2022-10-16T08:18:14;1.60;;;1.50;;
2618;SDS011;1319;52.346;13.096;2022-10-16T08:20:39;4.73;;;1.80;;
2618;SDS011;1319;52.346;13.096;2022-10-16T08:23:05;2.00;;;1.60;;
2618;SDS011;1319;52.346;13.096;2022-10-16T08:25:30;3.73;;;1.77;;
2618;SDS011;1319;52.346;13.096;2022-10-16T08:27:55;1.87;;;1.40;;
2618;SDS011;1319;52.346;13.096;2022-10-16T08:30:21;2.30;;;1.70;;
2618;SDS011;1319;52.346;13.096;2022-10-16T08:32:47;1.80;;;1.60;;
2618;SDS011;1319;52.346;13.096;2022-10-16T08:35:13;1.33;;;1.23;;
2618;SDS011;1319;52.346;13.096;2022-10-16T08:37:38;2.50;;;1.20;;
2618;SDS011;1319;52.346;13.096;2022-10-16T08:40:04;1.30;;;1.20;;
2618;SDS011;1319;52.346;13.096;2022-10-16T08:42:52;1.30;;;1.30;;
2618;SDS011;1319;52.346;13.096;2022-10-16T08:50:39;4.83;;;1.53;;
2618;SDS011;1319;52.346;13.096;2022-10-16T08:53:05;1.77;;;1.50;;
2618;SDS011;1319;52.346;13.096;2022-10-16T08:55:33;3.13;;;1.33;;
2618;SDS011;1319;52.346;13.096;2022-10-16T08:58:02;1.23;;;1.23;;
2618;SDS011;1319;52.346;13.096;2022-10-16T09:00:27;1.30;;;1.20;;
2618;SDS011;1319;52.346;13.096;2022-10-16T09:10:38;1.30;;;1.20;;
2618;SDS011;1319;52.346;13.096;2022-10-16T09:15:39;1.50;;;1.40;;
2618;SDS011;1319;52.346;13.096;2022-10-16T09:18:07;4.90;;;1.40;;
2618;SDS011;1319;52.346;13.096;2022-10-16T09:20:40;1.10;;;1.10;;
2618;SDS011;1319;52.346;13.096;2022-10-16T09:23:10;2.80;;;1.10;;
2618;SDS011;1319;52.346;13.096;2022-10-16T09:25:35;1.20;;;1.20;;
2618;SDS011;1319;52.346;13.096;2022-10-16T09:28:01;0.90;;;0.90;;
2618;SDS011;1319;52.346;13.096;2022-10-16T09:30:28;2.00;;;1.10;;
2618;SDS011;1319;52.346;13.096;2022-10-16T09:32:54;1.10;;;1.10;;
2618;SDS011;1319;52.346;13.096;2022-10-16T09:35:21;1.90;;;1.25;;
2618;SDS011;1319;52.346;13.096;2022-10-16T09:37:48;1.20;;;1.05;;
2618;SDS011;1319;52.346;13.096;2022-10-16T09:45:40;1.13;;;0.88;;
2618;SDS011;1319;52.346;13.096;2022-10-16T09:48:12;1.00;;;0.90;;
2618;SDS011;1319;52.346;13.096;2022-10-16T09:50:37;2.08;;;1.00;;
2618;SDS011;1319;52.346;13.096;2022-10-16T09:53:13;2.38;;;1.10;;
2618;SDS011;1319;52.346;13.096;2022-10-16T09:55:48;2.28;;;1.30;;
2618;SDS011;1319;52.346;13.096;2022-10-16T09:58:14;4.22;;;1.00;;
2618;SDS011;1319;52.346;13.096;2022-10-16T10:00:39;0.93;;;0.93;;
2618;SDS011;1319;52.346;13.096;2022-10-16T10:03:09;3.20;;;0.90;;
2618;SDS011;1319;52.346;13.096;2022-10-16T10:05:35;0.85;;;0.85;;
2618;SDS011;1319;52.346;13.096;2022-10-16T10:08:03;1.00;;;1.00;;
2618;SDS011;1319;52.346;13.096;2022-10-16T10:10:36;2.38;;;1.10;;
2618;SDS011;1319;52.346;13.096;2022-10-16T10:13:02;1.10;;;0.95;;
2618;SDS011;1319;52.346;13.096;2022-10-16T10:15:27;0.98;;;0.77;;
2618;SDS011;1319;52.346;13.096;2022-10-16T10:17:55;0.88;;;0.88;;
2618;SDS011;1319;52.346;13.096;2022-10-16T10:20:22;2.15;;;1.00;;
2618;SDS011;1319;52.346;13.096;2022-10-16T10:22:47;2.88;;;0.98;;
2618;SDS011;1319;52.346;13.096;2022-10-16T10:32:47;5.93;;;1.10;;
2618;SDS011;1319;52.346;13.096;2022-10-16T10:35:23;1.40;;;0.90;;
2618;SDS011;1319;52.346;13.096;2022-10-16T10:43:08;2.15;;;0.93;;
2618;SDS011;1319;52.346;13.096;2022-10-16T10:45:44;0.82;;;0.82;;
2618;SDS011;1319;52.346;13.096;2022-10-16T10:50:41;0.77;;;0.77;;
2618;SDS011;1319;52.346;13.096;2022-10-16T10:53:18;3.30;;;1.00;;
2618;SDS011;1319;52.346;13.096;2022-10-16T10:55:54;2.50;;;0.90;;
2618;SDS011;1319;52.346;13.096;2022-10-16T11:01:10;0.80;;;0.80;;
2618;SDS011;1319;52.346;13.096;2022-10-16T11:06:06;0.90;;;0.90;;
2618;SDS011;1319;52.346;13.096;2022-10-16T11:08:47;2.63;;;0.90;;
2618;SDS011;1319;52.346;13.096;2022-10-16T11:11:15;0.93;;;0.93;;
2618;SDS011;1319;52.346;13.096;2022-10-16T11:16:17;1.00;;;0.80;;
2618;SDS011;1319;52.346;13.096;2022-10-16T11:18:52;1.90;;;0.93;;
2618;SDS011;1319;52.346;13.096;2022-10-16T11:21:20;0.60;;;0.60;;
2618;SDS011;1319;52.346;13.096;2022-10-16T11:26:16;4.13;;;0.80;;
2618;SDS011;1319;52.346;13.096;2022-10-16T11:28:49;0.73;;;0.70;;
2618;SDS011;1319;52.346;13.096;2022-10-16T11:31:17;0.60;;;0.60;;
2618;SDS011;1319;52.346;13.096;2022-10-16T11:33:46;2.28;;;0.80;;
2618;SDS011;1319;52.346;13.096;2022-10-16T11:36:33;0.85;;;0.70;;
2618;SDS011;1319;52.346;13.096;2022-10-16T11:41:35;0.70;;;0.70;;
2618;SDS011;1319;52.346;13.096;2022-10-16T11:46:48;1.55;;;0.70;;
2618;SDS011;1319;52.346;13.096;2022-10-16T11:49:15;0.70;;;0.70;;
2618;SDS011;1319;52.346;13.096;2022-10-16T11:54:37;0.60;;;0.60;;
2618;SDS011;1319;52.346;13.096;2022-10-16T11:57:09;1.05;;;0.50;;
2618;SDS011;1319;52.346;13.096;2022-10-16T11:59:47;2.80;;;0.70;;
2618;SDS011;1319;52.346;13.096;2022-10-16T12:04:50;1.83;;;0.70;;
2618;SDS011;1319;52.346;13.096;2022-10-16T12:07:18;0.60;;;0.60;;
2618;SDS011;1319;52.346;13.096;2022-10-16T12:09:47;1.85;;;0.70;;
2618;SDS011;1319;52.346;13.096;2022-10-16T12:15:30;1.65;;;0.70;;
2618;SDS011;1319;52.346;13.096;2022-10-16T12:17:56;0.80;;;0.60;;
2618;SDS011;1319;52.346;13.096;2022-10-16T12:22:48;0.68;;;0.68;;
2618;SDS011;1319;52.346;13.096;2022-10-16T12:25:23;2.42;;;0.80;;
2618;SDS011;1319;52.346;13.096;2022-10-16T12:28:22;0.60;;;0.60;;
2618;SDS011;1319;52.346;13.096;2022-10-16T12:30:40;4.13;;;0.68;;
2618;SDS011;1319;52.346;13.096;2022-10-16T12:33:06;2.90;;;0.63;;
2618;SDS011;1319;52.346;13.096;2022-10-16T12:35:45;0.90;;;0.55;;
2618;SDS011;1319;52.346;13.096;2022-10-16T12:40:38;0.50;;;0.50;;
2618;SDS011;1319;52.346;13.096;2022-10-16T12:45:48;2.38;;;0.60;;
2618;SDS011;1319;52.346;13.096;2022-10-16T12:48:23;0.70;;;0.57;;
2618;SDS011;1319;52.346;13.096;2022-10-16T12:50:48;1.20;;;0.70;;
2618;SDS011;1319;52.346;13.096;2022-10-16T12:53:18;1.05;;;0.60;;
2618;SDS011;1319;52.346;13.096;2022-10-16T12:55:47;1.02;;;0.90;;
2618;SDS011;1319;52.346;13.096;2022-10-16T13:00:45;4.28;;;0.80;;
2618;SDS011;1319;52.346;13.096;2022-10-16T13:08:29;3.45;;;0.95;;
2618;SDS011;1319;52.346;13.096;2022-10-16T13:23:23;0.63;;;0.60;;
2618;SDS011;1319;52.346;13.096;2022-10-16T13:28:15;1.20;;;0.68;;
2618;SDS011;1319;52.346;13.096;2022-10-16T13:30:43;0.70;;;0.70;;
2618;SDS011;1319;52.346;13.096;2022-10-16T13:35:35;0.77;;;0.77;;
2618;SDS011;1319;52.346;13.096;2022-10-16T13:38:04;0.90;;;0.90;;
2618;SDS011;1319;52.346;13.096;2022-10-16T13:40:30;0.90;;;0.90;;
2618;SDS011;1319;52.346;13.096;2022-10-16T13:42:55;0.90;;;0.73;;
2618;SDS011;1319;52.346;13.096;2022-10-16T13:45:22;0.77;;;0.77;;
2618;SDS011;1319;52.346;13.096;2022-10-16T13:47:47;2.55;;;0.80;;
2618;SDS011;1319;52.346;13.096;2022-10-16T13:50:14;0.85;;;0.80;;
2618;SDS011;1319;52.346;13.096;2022-10-16T13:52:39;2.60;;;0.90;;
2618;SDS011;1319;52.346;13.096;2022-10-16T13:55:10;1.95;;;0.80;;
2618;SDS011;1319;52.346;13.096;2022-10-16T13:57:36;1.75;;;0.80;;
2618;SDS011;1319;52.346;13.096;2022-10-16T14:00:01;1.92;;;1.10;;
2618;SDS011;1319;52.346;13.096;2022-10-16T14:02:33;1.60;;;1.50;;
2618;SDS011;1319;52.346;13.096;2022-10-16T14:05:00;1.20;;;1.10;;
2618;SDS011;1319;52.346;13.096;2022-10-16T14:07:26;0.70;;;0.70;;
2618;SDS011;1319;52.346;13.096;2022-10-16T14:09:53;1.77;;;1.73;;
2618;SDS011;1319;52.346;13.096;2022-10-16T14:12:18;2.13;;;1.50;;
2618;SDS011;1319;52.346;13.096;2022-10-16T14:14:44;1.45;;;1.40;;
2618;SDS011;1319;52.346;13.096;2022-10-16T14:17:24;1.30;;;1.30;;
2618;SDS011;1319;52.346;13.096;2022-10-16T14:19:51;0.88;;;0.88;;
2618;SDS011;1319;52.346;13.096;2022-10-16T14:22:30;2.70;;;0.70;;
2618;SDS011;1319;52.346;13.096;2022-10-16T14:24:57;2.47;;;0.70;;
2618;SDS011;1319;52.346;13.096;2022-10-16T14:27:32;3.20;;;0.75;;
2618;SDS011;1319;52.346;13.096;2022-10-16T14:32:40;0.80;;;0.80;;
2618;SDS011;1319;52.346;13.096;2022-10-16T14:35:21;2.30;;;0.60;;
2618;SDS011;1319;52.346;13.096;2022-10-16T14:37:50;0.80;;;0.80;;
2618;SDS011;1319;52.346;13.096;2022-10-16T14:40:23;1.77;;;0.60;;
2618;SDS011;1319;52.346;13.096;2022-10-16T14:42:48;1.70;;;0.65;;
2618;SDS011;1319;52.346;13.096;2022-10-16T14:45:14;2.63;;;0.60;;
2618;SDS011;1319;52.346;13.096;2022-10-16T14:47:46;0.93;;;0.63;;
2618;SDS011;1319;52.346;13.096;2022-10-16T14:50:13;0.70;;;0.70;;
2618;SDS011;1319;52.346;13.096;2022-10-16T14:52:38;0.70;;;0.70;;
2618;SDS011;1319;52.346;13.096;2022-10-16T14:55:04;3.03;;;0.70;;
2618;SDS011;1319;52.346;13.096;2022-10-16T14:57:30;2.08;;;0.70;;
2618;SDS011;1319;52.346;13.096;2022-10-16T14:59:56;2.15;;;0.70;;
2618;SDS011;1319;52.346;13.096;2022-10-16T15:02:27;0.65;;;0.65;;
2618;SDS011;1319;52.346;13.096;2022-10-16T15:04:53;2.63;;;0.82;;
2618;SDS011;1319;52.346;13.096;2022-10-16T15:07:18;0.70;;;0.70;;
2618;SDS011;1319;52.346;13.096;2022-10-16T15:09:43;2.40;;;0.73;;
2618;SDS011;1319;52.346;13.096;2022-10-16T15:12:09;0.95;;;0.80;;
2618;SDS011;1319;52.346;13.096;2022-10-16T15:14:34;0.82;;;0.80;;
2618;SDS011;1319;52.346;13.096;2022-10-16T15:16:59;1.03;;;0.87;;
2618;SDS011;1319;52.346;13.096;2022-10-16T15:19:24;1.98;;;0.90;;
2618;SDS011;1319;52.346;13.096;2022-10-16T15:21:50;0.63;;;0.63;;
2618;SDS011;1319;52.346;13.096;2022-10-16T15:24:15;0.77;;;0.77;;
2618;SDS011;1319;52.346;13.096;2022-10-16T15:26:41;2.73;;;0.90;;
2618;SDS011;1319;52.346;13.096;2022-10-16T15:29:06;0.70;;;0.70;;
2618;SDS011;1319;52.346;13.096;2022-10-16T15:31:32;0.87;;;0.87;;
2618;SDS011;1319;52.346;13.096;2022-10-16T15:33:58;1.83;;;0.70;;
2618;SDS011;1319;52.346;13.096;2022-10-16T15:36:28;0.73;;;0.73;;
2618;SDS011;1319;52.346;13.096;2022-10-16T15:38:54;7.23;;;0.90;;
2618;SDS011;1319;52.346;13.096;2022-10-16T15:41:20;0.70;;;0.70;;
2618;SDS011;1319;52.346;13.096;2022-10-16T15:43:46;1.60;;;0.80;;
2618;SDS011;1319;52.346;13.096;2022-10-16T15:46:13;0.77;;;0.77;;
2618;SDS011;1319;52.346;13.096;2022-10-16T15:48:39;0.93;;;0.80;;
2618;SDS011;1319;52.346;13.096;2022-10-16T15:51:05;2.33;;;0.80;;
2618;SDS011;1319;52.346;13.096;2022-10-16T15:53:30;2.87;;;0.87;;
2618;SDS011;1319;52.346;13.096;2022-10-16T15:55:56;1.00;;;0.90;;
2618;SDS011;1319;52.346;13.096;2022-10-16T15:58:21;7.63;;;1.10;;
2618;SDS011;1319;52.346;13.096;2022-10-16T16:00:53;11.43;;;1.60;;
2618;SDS011;1319;52.346;13.096;2022-10-16T16:03:19;9.27;;;0.93;;
2618;SDS011;1319;52.346;13.096;2022-10-16T16:05:44;1.20;;;1.10;;
2618;SDS011;1319;52.346;13.096;2022-10-16T16:08:09;3.90;;;1.00;;
2618;SDS011;1319;52.346;13.096;2022-10-16T16:10:36;2.70;;;1.07;;
2618;SDS011;1319;52.346;13.096;2022-10-16T16:13:01;4.37;;;1.00;;
2618;SDS011;1319;52.346;13.096;2022-10-16T16:15:26;4.77;;;1.07;;
2618;SDS011;1319;52.346;13.096;2022-10-16T16:17:51;6.80;;;1.10;;
2618;SDS011;1319;52.346;13.096;2022-10-16T16:20:17;4.83;;;1.00;;
2618;SDS011;1319;52.346;13.096;2022-10-16T16:22:42;6.63;;;1.00;;
2618;SDS011;1319;52.346;13.096;2022-10-16T16:25:07;1.83;;;0.90;;
2618;SDS011;1319;52.346;13.096;2022-10-16T16:27:33;4.43;;;0.93;;
2618;SDS011;1319;52.346;13.096;2022-10-16T16:29:59;3.60;;;1.10;;
2618;SDS011;1319;52.346;13.096;2022-10-16T16:32:24;1.87;;;0.90;;
2618;SDS011;1319;52.346;13.096;2022-10-16T16:34:50;2.70;;;0.97;;
2618;SDS011;1319;52.346;13.096;2022-10-16T16:37:15;3.53;;;1.10;;
2618;SDS011;1319;52.346;13.096;2022-10-16T16:39:40;1.43;;;0.90;;
2618;SDS011;1319;52.346;13.096;2022-10-16T16:42:06;3.73;;;1.10;;
2618;SDS011;1319;52.346;13.096;2022-10-16T16:44:32;2.03;;;1.30;;
2618;SDS011;1319;52.346;13.096;2022-10-16T16:46:57;3.27;;;1.27;;